Richard Lloyd Jones Jr Airport
KRVS : now visible

Airfield :











YOU CAN JOIN US ON...

 
LOGIN :

Register | Disclaimer

   EN    FR    IT 

 









Legend :    VFR   Marginal VFR   IFR   Intensive IFR   Very Intensive IFR
Visi :
Ceiling :
>= 8 km
>= 3000ft
5 to 8 km
1000 to 3000 ft
1500m to 5 km
500 to 1000 ft
800 to 1500m
200 to 500 ft
< 800m
< 200 ft
Symbols :   Thunderstorms  Fog  Heavy snow  Heavy precipitations  Wind > 20 kt






- Airport Elevation : 638 ft


KRVS - Richard Lloyd Jones Jr

CURRENT METAR :
  • 280453Z AUTO 00000KT 9SM BKN120 19/18 A2987 RMK AO2 RAE02 SLP120 P0000 T01940178

EXPIRED METARs :
  • 280353Z AUTO 00000KT 10SM -RA FEW055 BKN075 OVC090 20/18 A2988 RMK AO2 RAB43 SLP122 P0000 T02000178
  • 280253Z 00000KT 10SM FEW048 OVC080 20/18 A2987 RMK AO2 RAE13B41E48 SLP121 LAST P0000 60001 T02000183 53014

TAF KRVS
Valid from the 28 at 06:00 until the 29 at 06:00 UTC


280520Z 2806/2906 00000KT P6SM SCT080
FM280800 00000KT 5SM BR BKN012
TEMPO 2808/2812 2SM BR BKN007
FM281200 VRB03KT 6SM BR VCSH OVC013
PROB30 2815/2818 4SM SHRA OVC007
FM281800 34012KT P6SM SHRA OVC050
PROB30 2818/2824 4SM TSRA OVC020CB
FM290000 36008KT P6SM BKN100
KZKC FIR / North America



MET'MAP, your aeronautical weather chart ! - Copyright ORBIFLY December 2007 - Disclaimer

ORBIFLY MET'MAP TEAM :

Programming & Development : Alexandra Zaïnal
Concept & original design : Baudouin d'Aumeries
Assistance for programming : Marc-Olivier Méhu
Technical & hardware support : Manuel Goepfert

Contact : metmap@orbifly.com




SOURCES & CREDITS :

   NOAA       Earth
Advisory